createdAt,value
2023-05-06T00:01:59.242Z,14.53
2023-05-06T00:04:44.182Z,14.52
2023-05-06T00:07:29.164Z,14.51
2023-05-06T00:10:14.203Z,14.56
2023-05-06T00:12:59.260Z,14.51
2023-05-06T00:15:44.250Z,14.51
2023-05-06T00:18:29.205Z,14.58
2023-05-06T00:21:14.181Z,14.57
2023-05-06T00:23:59.240Z,14.52
2023-05-06T00:26:44.332Z,14.43
2023-05-06T00:29:29.434Z,14.42
2023-05-06T00:32:14.538Z,14.43
2023-05-06T00:34:59.436Z,14.40
2023-05-06T00:37:44.446Z,14.34
2023-05-06T00:40:29.114Z,14.38
2023-05-06T00:43:14.193Z,14.35
2023-05-06T00:45:59.059Z,14.31
2023-05-06T00:48:43.855Z,14.35
2023-05-06T00:51:28.897Z,14.40
2023-05-06T00:54:13.675Z,14.37
2023-05-06T00:56:58.561Z,14.49
2023-05-06T00:59:43.324Z,14.45
2023-05-06T01:02:39.601Z,14.47
2023-05-06T01:05:30.870Z,14.49
2023-05-06T01:08:15.647Z,14.41
2023-05-06T01:11:00.534Z,14.41
2023-05-06T01:13:45.479Z,14.40
2023-05-06T01:16:30.672Z,14.34
2023-05-06T01:19:15.595Z,14.29
2023-05-06T01:22:00.591Z,14.21
2023-05-06T01:24:45.531Z,14.21
2023-05-06T01:27:30.482Z,14.19
2023-05-06T01:30:15.458Z,14.16
2023-05-06T01:33:00.392Z,14.12
2023-05-06T01:35:45.352Z,14.08
2023-05-06T01:38:30.248Z,14.11
2023-05-06T01:41:15.207Z,14.10
2023-05-06T01:44:00.077Z,14.02
2023-05-06T01:46:45.161Z,14.05
2023-05-06T01:49:29.977Z,14.12
2023-05-06T01:52:14.855Z,14.11
2023-05-06T01:54:59.795Z,14.01
2023-05-06T01:57:44.762Z,14.04
2023-05-06T02:00:29.826Z,13.96
2023-05-06T02:03:14.828Z,13.88
2023-05-06T02:05:59.825Z,13.82
2023-05-06T02:08:44.605Z,13.78
2023-05-06T02:11:29.713Z,13.78
2023-05-06T02:14:14.633Z,13.80
2023-05-06T02:16:59.681Z,13.80
2023-05-06T02:19:44.669Z,13.89
2023-05-06T02:22:29.548Z,13.86
2023-05-06T02:25:14.488Z,13.87
2023-05-06T02:27:59.427Z,13.88
2023-05-06T02:30:44.479Z,13.90
2023-05-06T02:33:29.296Z,13.94
2023-05-06T02:36:14.302Z,13.94
2023-05-06T02:38:59.036Z,13.95
2023-05-06T02:41:44.015Z,13.90
2023-05-06T02:44:28.930Z,13.88
2023-05-06T02:47:13.720Z,13.85
2023-05-06T02:49:58.746Z,13.84
2023-05-06T02:52:43.575Z,13.86
2023-05-06T02:55:28.398Z,13.84
2023-05-06T02:58:13.308Z,13.90
2023-05-06T03:00:58.277Z,13.89
2023-05-06T03:03:43.158Z,13.98
2023-05-06T03:06:27.984Z,13.95
2023-05-06T03:09:13.028Z,13.97
2023-05-06T03:11:57.916Z,13.95
2023-05-06T03:14:42.997Z,13.96
2023-05-06T03:17:27.687Z,13.88
2023-05-06T03:20:12.565Z,13.87
2023-05-06T03:22:57.341Z,13.91
2023-05-06T03:25:42.391Z,13.89
2023-05-06T03:28:27.148Z,13.92
2023-05-06T03:31:12.119Z,13.92
2023-05-06T03:33:57.006Z,13.88
2023-05-06T03:36:41.992Z,13.87
2023-05-06T03:39:27.020Z,13.88
2023-05-06T03:42:11.867Z,13.94
2023-05-06T03:44:56.880Z,13.88
2023-05-06T03:47:41.837Z,13.92
2023-05-06T03:50:26.965Z,13.83
2023-05-06T03:53:11.729Z,13.80
2023-05-06T03:55:56.759Z,13.84
2023-05-06T03:58:41.592Z,13.82
2023-05-06T04:01:26.642Z,13.84
2023-05-06T04:04:11.838Z,13.84
2023-05-06T04:06:56.795Z,13.76
2023-05-06T04:09:41.968Z,13.64
2023-05-06T04:12:26.856Z,13.66
2023-05-06T04:15:12.061Z,13.65
2023-05-06T04:17:57.212Z,13.64
2023-05-06T04:20:42.128Z,13.66
2023-05-06T04:23:27.114Z,13.61
2023-05-06T04:26:11.869Z,13.63
2023-05-06T04:28:56.938Z,13.63
2023-05-06T04:31:41.851Z,13.63
2023-05-06T04:34:26.823Z,13.62
2023-05-06T04:37:11.650Z,13.44
2023-05-06T04:39:56.552Z,13.40
2023-05-06T04:42:41.610Z,13.41
2023-05-06T04:45:26.693Z,13.47
2023-05-06T04:48:11.593Z,13.43
2023-05-06T04:50:56.478Z,13.50
2023-05-06T04:53:41.387Z,13.53
2023-05-06T04:56:26.375Z,13.48
2023-05-06T04:59:11.269Z,13.41
2023-05-06T05:01:56.099Z,13.37
2023-05-06T05:04:41.225Z,13.46
2023-05-06T05:07:26.114Z,13.49
2023-05-06T05:10:11.161Z,13.46
2023-05-06T05:12:56.161Z,13.41
2023-05-06T05:15:41.177Z,13.43
2023-05-06T05:18:26.159Z,13.46
2023-05-06T05:21:10.976Z,13.43
2023-05-06T05:23:56.078Z,13.46
2023-05-06T05:26:40.978Z,13.42
2023-05-06T05:29:25.990Z,13.50
2023-05-06T05:32:10.968Z,13.54
2023-05-06T05:34:56.080Z,13.59
2023-05-06T05:37:41.201Z,13.53
2023-05-06T05:40:26.077Z,13.61
2023-05-06T05:43:11.081Z,13.68
2023-05-06T05:45:56.032Z,13.72
2023-05-06T05:48:40.844Z,13.81
2023-05-06T05:51:25.669Z,13.87
2023-05-06T05:54:10.432Z,13.93
2023-05-06T05:56:55.428Z,14.02
2023-05-06T05:59:40.198Z,14.13
2023-05-06T06:02:25.406Z,13.99
2023-05-06T06:05:10.391Z,14.14
2023-05-06T06:07:55.086Z,14.31
2023-05-06T06:10:40.058Z,14.30
2023-05-06T06:13:26.567Z,14.51
2023-05-06T06:16:13.682Z,14.53
2023-05-06T06:18:58.512Z,14.60
2023-05-06T06:21:43.603Z,14.79
2023-05-06T06:24:28.425Z,14.82
2023-05-06T06:27:13.473Z,14.99
2023-05-06T06:29:58.486Z,15.13
2023-05-06T06:32:43.486Z,15.22
2023-05-06T06:35:28.334Z,15.24
2023-05-06T06:38:13.230Z,15.35
2023-05-06T06:40:58.196Z,15.41
2023-05-06T06:43:43.045Z,15.62
2023-05-06T06:46:27.947Z,15.61
2023-05-06T06:49:12.799Z,15.42
2023-05-06T06:51:57.723Z,15.67
2023-05-06T06:54:42.489Z,15.68
2023-05-06T06:57:27.483Z,15.85
2023-05-06T07:00:12.521Z,15.94
2023-05-06T07:02:57.430Z,15.88
2023-05-06T07:05:42.397Z,16.01
2023-05-06T07:08:27.206Z,15.95
2023-05-06T07:11:12.092Z,15.82
2023-05-06T07:13:56.948Z,15.99
2023-05-06T07:16:42.961Z,15.91
2023-05-06T07:19:29.447Z,16.15
2023-05-06T07:22:14.388Z,16.46
2023-05-06T07:24:59.411Z,16.47
2023-05-06T07:27:44.306Z,16.50
2023-05-06T07:30:29.366Z,16.54
2023-05-06T07:33:14.397Z,16.32
2023-05-06T07:35:59.263Z,16.36
2023-05-06T07:38:44.410Z,16.72
2023-05-06T07:41:29.499Z,16.83
2023-05-06T07:44:14.508Z,17.03
2023-05-06T07:46:59.435Z,17.01
2023-05-06T07:49:44.318Z,16.91
2023-05-06T07:52:29.088Z,16.92
2023-05-06T07:55:14.045Z,17.17
2023-05-06T07:57:58.969Z,17.09
2023-05-06T08:00:43.919Z,17.24
2023-05-06T08:03:29.306Z,17.24
2023-05-06T08:06:14.264Z,17.38
2023-05-06T08:08:59.473Z,17.32
2023-05-06T08:11:44.199Z,17.33
2023-05-06T08:14:29.302Z,17.25
2023-05-06T08:17:14.192Z,17.12
2023-05-06T08:19:59.154Z,17.26
2023-05-06T08:22:44.215Z,17.13
2023-05-06T08:25:29.081Z,17.33
2023-05-06T08:28:14.166Z,17.42
2023-05-06T08:30:59.157Z,17.39
2023-05-06T08:33:44.488Z,17.68
2023-05-06T08:36:29.380Z,17.55
2023-05-06T08:39:14.431Z,17.76
2023-05-06T08:44:44.443Z,17.83
2023-05-06T08:47:29.222Z,18.05
2023-05-06T08:50:14.068Z,18.30
2023-05-06T08:52:59.104Z,18.39
2023-05-06T08:55:44.018Z,18.68
2023-05-06T08:58:28.962Z,18.76
2023-05-06T09:01:13.918Z,18.50
2023-05-06T09:03:59.070Z,18.90
2023-05-06T09:06:44.155Z,18.94
2023-05-06T09:09:29.240Z,19.08
2023-05-06T09:12:14.330Z,19.09
2023-05-06T09:14:59.411Z,19.17
2023-05-06T09:17:44.567Z,19.20
2023-05-06T09:20:29.593Z,19.46
2023-05-06T09:23:14.757Z,19.56
2023-05-06T09:25:59.610Z,19.47
2023-05-06T09:28:44.692Z,19.72
2023-05-06T09:31:29.900Z,19.86
2023-05-06T09:34:17.085Z,20.02
2023-05-06T09:37:02.095Z,20.17
2023-05-06T09:39:47.007Z,20.03
2023-05-06T09:42:31.962Z,19.88
2023-05-06T09:45:16.986Z,19.84
2023-05-06T09:48:02.063Z,19.93
2023-05-06T09:50:46.970Z,19.96
2023-05-06T09:53:32.110Z,19.99
2023-05-06T09:56:16.895Z,19.91
2023-05-06T09:59:01.858Z,19.84
2023-05-06T10:01:46.935Z,19.88
2023-05-06T10:04:32.033Z,19.97
2023-05-06T10:07:17.337Z,20.00
2023-05-06T10:10:02.464Z,19.78
2023-05-06T10:12:47.571Z,20.20
2023-05-06T10:15:32.508Z,20.33
2023-05-06T10:18:17.575Z,20.48
2023-05-06T10:21:02.826Z,20.45
2023-05-06T10:23:47.513Z,20.32
2023-05-06T10:26:32.577Z,20.23
2023-05-06T10:29:17.455Z,20.34
2023-05-06T10:32:02.503Z,20.67
2023-05-06T10:34:47.298Z,20.70
2023-05-06T10:37:32.316Z,20.48
2023-05-06T10:40:17.297Z,20.97
2023-05-06T10:43:02.254Z,21.22
2023-05-06T10:45:47.345Z,21.45
2023-05-06T10:48:32.301Z,21.21
2023-05-06T10:51:17.331Z,21.15
2023-05-06T10:54:02.569Z,21.30
2023-05-06T10:56:47.408Z,21.46
2023-05-06T10:59:32.469Z,21.58
2023-05-06T11:02:17.252Z,21.83
2023-05-06T11:05:03.359Z,21.92
2023-05-06T11:07:48.404Z,21.93
2023-05-06T11:10:33.563Z,21.27
2023-05-06T11:13:18.780Z,21.47
2023-05-06T11:16:03.670Z,21.54
2023-05-06T11:18:48.730Z,21.74
2023-05-06T11:21:33.659Z,21.77
2023-05-06T11:24:18.602Z,21.94
2023-05-06T11:27:03.518Z,21.78
2023-05-06T11:29:48.212Z,22.16
2023-05-06T11:32:33.188Z,21.86
2023-05-06T11:35:18.008Z,21.40
2023-05-06T11:38:03.089Z,21.65
2023-05-06T11:40:47.750Z,21.66
2023-05-06T11:43:32.981Z,21.77
2023-05-06T11:46:17.904Z,22.04
2023-05-06T11:49:02.904Z,22.14
2023-05-06T11:51:47.809Z,21.97
2023-05-06T11:54:32.497Z,21.92
2023-05-06T11:57:17.520Z,22.13
2023-05-06T12:00:02.469Z,22.57
2023-05-06T12:02:47.586Z,22.35
2023-05-06T12:05:32.460Z,22.07
2023-05-06T12:08:26.653Z,21.98
2023-05-06T12:11:12.170Z,22.24
2023-05-06T12:13:56.949Z,22.58
2023-05-06T12:16:42.032Z,22.84
2023-05-06T12:19:27.031Z,22.73
2023-05-06T12:22:11.614Z,22.30
2023-05-06T12:24:56.667Z,22.58
2023-05-06T12:27:41.574Z,22.76
2023-05-06T12:30:26.539Z,22.39
2023-05-06T12:33:11.559Z,22.53
2023-05-06T12:35:56.579Z,22.57
2023-05-06T12:38:41.596Z,22.45
2023-05-06T12:41:26.526Z,22.34
2023-05-06T12:44:11.618Z,22.02
2023-05-06T12:46:56.503Z,22.24
2023-05-06T12:49:41.654Z,22.54
2023-05-06T12:52:26.609Z,22.69
2023-05-06T12:55:11.664Z,22.80
2023-05-06T12:57:57.879Z,22.64
2023-05-06T13:00:42.966Z,22.76
2023-05-06T13:03:28.159Z,22.73
2023-05-06T13:06:12.991Z,22.91
2023-05-06T13:08:57.864Z,22.98
2023-05-06T13:11:42.725Z,22.99
2023-05-06T13:14:27.718Z,23.06
2023-05-06T13:17:12.612Z,23.01
2023-05-06T13:19:57.471Z,23.10
2023-05-06T13:22:53.872Z,23.06
2023-05-06T13:25:51.965Z,23.20
2023-05-06T13:28:44.672Z,23.42
2023-05-06T13:31:29.625Z,23.52
2023-05-06T13:34:14.542Z,23.74
2023-05-06T13:36:59.469Z,23.57
2023-05-06T13:39:44.433Z,23.44
2023-05-06T13:42:29.320Z,23.31
2023-05-06T13:45:14.386Z,23.27
2023-05-06T13:47:59.460Z,23.57
2023-05-06T13:50:44.520Z,23.43
2023-05-06T13:53:29.486Z,23.21
2023-05-06T13:56:14.370Z,23.52
2023-05-06T13:58:59.469Z,23.35
2023-05-06T14:01:44.486Z,23.40
2023-05-06T14:04:29.503Z,23.41
2023-05-06T14:07:14.590Z,23.60
2023-05-06T14:09:59.507Z,23.60
2023-05-06T14:12:44.394Z,23.35
2023-05-06T14:15:29.194Z,23.52
2023-05-06T14:18:14.211Z,23.68
2023-05-06T14:20:59.114Z,23.84
2023-05-06T14:23:44.240Z,23.62
2023-05-06T14:26:28.803Z,23.34
2023-05-06T14:29:13.897Z,23.57
2023-05-06T14:31:59.123Z,23.28
2023-05-06T14:34:44.163Z,23.44
2023-05-06T14:37:29.221Z,23.50
2023-05-06T14:40:14.184Z,23.16
2023-05-06T14:42:59.056Z,23.46
2023-05-06T14:45:44.041Z,23.33
2023-05-06T14:48:29.003Z,23.30
2023-05-06T14:51:13.906Z,23.18
2023-05-06T14:53:58.869Z,23.14
2023-05-06T14:56:43.896Z,22.91
2023-05-06T14:59:28.769Z,23.05
2023-05-06T15:02:13.739Z,22.95
2023-05-06T15:04:58.608Z,23.17
2023-05-06T15:07:43.845Z,23.03
2023-05-06T15:10:28.797Z,22.95
2023-05-06T15:13:13.857Z,22.55
2023-05-06T15:15:58.789Z,22.57
2023-05-06T15:18:43.728Z,22.65
2023-05-06T15:21:28.707Z,22.78
2023-05-06T15:24:13.582Z,22.82
2023-05-06T15:26:58.475Z,22.74
2023-05-06T15:29:43.339Z,22.83
2023-05-06T15:32:28.312Z,22.82
2023-05-06T15:35:13.338Z,22.80
2023-05-06T15:37:58.127Z,22.83
2023-05-06T15:40:43.128Z,22.63
2023-05-06T15:43:37.493Z,22.52
2023-05-06T15:46:23.547Z,22.45
2023-05-06T15:49:42.596Z,22.32
2023-05-06T15:52:13.293Z,22.29
2023-05-06T15:54:59.898Z,22.36
2023-05-06T15:57:45.073Z,22.45
2023-05-06T16:00:29.915Z,22.40
2023-05-06T16:03:15.126Z,22.29
2023-05-06T16:06:00.225Z,22.32
2023-05-06T16:08:45.107Z,22.24
2023-05-06T16:11:30.244Z,22.27
2023-05-06T16:14:14.974Z,22.25
2023-05-06T16:16:59.919Z,22.19
2023-05-06T16:19:44.766Z,22.12
2023-05-06T16:22:29.724Z,22.13
2023-05-06T16:25:14.823Z,21.89
2023-05-06T16:28:00.002Z,21.96
2023-05-06T16:30:45.280Z,21.94
2023-05-06T16:33:30.312Z,22.01
2023-05-06T16:36:15.022Z,21.98
2023-05-06T16:39:00.032Z,22.01
2023-05-06T16:41:45.203Z,21.99
2023-05-06T16:44:31.996Z,21.99
2023-05-06T16:47:18.316Z,21.79
2023-05-06T16:50:11.819Z,21.69
2023-05-06T16:53:01.544Z,21.58
2023-05-06T16:55:51.321Z,21.55
2023-05-06T16:58:47.782Z,21.45
2023-05-06T17:01:32.596Z,21.45
2023-05-06T17:04:17.587Z,21.48
2023-05-06T17:07:02.737Z,21.45
2023-05-06T17:09:47.727Z,21.43
2023-05-06T17:12:32.909Z,21.35
2023-05-06T17:15:17.751Z,21.29
2023-05-06T17:18:02.742Z,20.93
2023-05-06T17:20:56.099Z,20.70
2023-05-06T17:23:41.848Z,20.76
2023-05-06T17:26:26.953Z,20.72
2023-05-06T17:29:14.200Z,20.66
2023-05-06T17:31:59.232Z,20.66
2023-05-06T17:34:44.113Z,20.53
2023-05-06T17:37:29.038Z,20.46
2023-05-06T17:40:14.044Z,20.39
2023-05-06T17:42:59.111Z,20.37
2023-05-06T17:45:44.108Z,20.32
2023-05-06T17:48:29.002Z,20.29
2023-05-06T17:51:13.969Z,20.21
2023-05-06T17:53:58.975Z,20.24
2023-05-06T17:56:44.066Z,20.23
2023-05-06T17:59:29.104Z,20.20
2023-05-06T18:02:14.024Z,20.14
2023-05-06T18:04:58.986Z,20.11
2023-05-06T18:07:43.919Z,20.05
2023-05-06T18:10:28.936Z,20.02
2023-05-06T18:13:13.850Z,19.90
2023-05-06T18:15:58.893Z,19.68
2023-05-06T18:18:43.740Z,19.64
2023-05-06T18:21:28.743Z,19.61
2023-05-06T18:24:16.593Z,19.62
2023-05-06T18:27:01.776Z,19.48
2023-05-06T18:29:46.919Z,19.39
2023-05-06T18:32:31.833Z,19.29
2023-05-06T18:35:17.091Z,19.25
2023-05-06T18:38:02.279Z,19.18
2023-05-06T18:40:47.034Z,19.18
2023-05-06T18:43:32.284Z,19.11
2023-05-06T18:46:16.917Z,19.05
2023-05-06T18:49:02.051Z,18.97
2023-05-06T18:51:46.926Z,18.90
2023-05-06T18:54:31.895Z,18.83
2023-05-06T18:57:16.745Z,18.78
2023-05-06T19:00:01.790Z,18.66
2023-05-06T19:02:46.890Z,18.64
2023-05-06T19:05:31.915Z,18.64
2023-05-06T19:08:17.014Z,18.57
2023-05-06T19:11:01.986Z,18.46
2023-05-06T19:13:47.026Z,18.41
2023-05-06T19:16:31.848Z,18.37
2023-05-06T19:19:16.835Z,18.41
2023-05-06T19:22:01.727Z,18.15
2023-05-06T19:24:46.743Z,18.29
2023-05-06T19:27:31.654Z,18.27
2023-05-06T19:30:16.788Z,18.31
2023-05-06T19:33:01.837Z,18.40
2023-05-06T19:35:46.720Z,18.31
2023-05-06T19:38:31.748Z,18.21
2023-05-06T19:41:16.860Z,18.11
2023-05-06T19:44:01.912Z,18.08
2023-05-06T19:46:47.052Z,18.10
2023-05-06T19:49:31.967Z,17.96
2023-05-06T19:52:16.998Z,17.85
2023-05-06T19:55:01.780Z,17.76
2023-05-06T19:57:46.760Z,17.70
2023-05-06T20:00:31.839Z,17.72
2023-05-06T20:03:16.811Z,17.62
2023-05-06T20:06:01.796Z,17.56
2023-05-06T20:08:46.957Z,17.57
2023-05-06T20:11:31.857Z,17.62
2023-05-06T20:14:17.036Z,17.59
2023-05-06T20:17:02.215Z,17.54
2023-05-06T20:19:47.320Z,17.52
2023-05-06T20:22:32.352Z,17.53
2023-05-06T20:25:17.310Z,17.47
2023-05-06T20:28:02.376Z,17.43
2023-05-06T20:30:47.426Z,17.36
2023-05-06T20:33:32.415Z,17.31
2023-05-06T20:36:17.621Z,17.18
2023-05-06T20:39:02.722Z,16.83
2023-05-06T20:41:49.223Z,16.83
2023-05-06T20:44:34.327Z,16.85
2023-05-06T20:47:19.644Z,16.85
2023-05-06T20:50:04.856Z,16.79
2023-05-06T20:52:49.788Z,16.74
2023-05-06T20:55:34.875Z,16.77
2023-05-06T20:58:19.701Z,16.63
2023-05-06T21:01:04.855Z,16.66
2023-05-06T21:03:49.732Z,16.58
2023-05-06T21:06:34.519Z,16.53
2023-05-06T21:09:19.469Z,16.14
2023-05-06T21:12:04.459Z,16.22
2023-05-06T21:14:49.315Z,16.30
2023-05-06T21:17:34.292Z,16.37
2023-05-06T21:20:19.108Z,16.50
2023-05-06T21:23:04.045Z,16.46
2023-05-06T21:25:49.018Z,16.55
2023-05-06T21:28:33.786Z,16.47
2023-05-06T21:31:18.771Z,16.34
2023-05-06T21:34:03.713Z,16.37
2023-05-06T21:36:48.722Z,16.35
2023-05-06T21:39:33.837Z,16.30
2023-05-06T21:42:18.649Z,16.18
2023-05-06T21:45:03.673Z,16.03
2023-05-06T21:47:48.666Z,16.01
2023-05-06T21:50:33.643Z,16.00
2023-05-06T21:53:18.459Z,16.01
2023-05-06T21:56:03.464Z,15.95
2023-05-06T21:58:48.484Z,15.87
2023-05-06T22:01:33.457Z,15.88
2023-05-06T22:04:18.408Z,15.79
2023-05-06T22:07:03.239Z,15.76
2023-05-06T22:09:48.190Z,15.75
2023-05-06T22:12:33.089Z,15.73
2023-05-06T22:15:18.236Z,15.70
2023-05-06T22:18:03.191Z,15.68
2023-05-06T22:20:47.966Z,15.61
2023-05-06T22:23:32.942Z,15.62
2023-05-06T22:26:17.802Z,15.66
2023-05-06T22:29:02.791Z,15.60
2023-05-06T22:31:47.724Z,15.60
2023-05-06T22:34:32.748Z,15.64
2023-05-06T22:37:17.752Z,15.60
2023-05-06T22:40:02.779Z,15.63
2023-05-06T22:42:47.700Z,15.60
2023-05-06T22:45:32.681Z,15.52
2023-05-06T22:48:17.774Z,15.54
2023-05-06T22:51:02.800Z,15.52
2023-05-06T22:53:47.955Z,15.50
2023-05-06T22:56:32.823Z,15.49
2023-05-06T22:59:17.795Z,15.41
2023-05-06T23:02:02.666Z,15.39
2023-05-06T23:04:47.719Z,15.49
2023-05-06T23:07:32.809Z,15.53
2023-05-06T23:10:17.841Z,15.37
2023-05-06T23:13:02.842Z,15.45
2023-05-06T23:15:47.826Z,15.42
2023-05-06T23:18:32.858Z,15.35
2023-05-06T23:21:17.690Z,15.31
2023-05-06T23:24:02.709Z,15.30
2023-05-06T23:26:47.615Z,15.31
2023-05-06T23:29:32.526Z,15.24
2023-05-06T23:32:17.591Z,15.24
2023-05-06T23:35:02.593Z,15.27
2023-05-06T23:37:47.534Z,15.27
2023-05-06T23:40:32.539Z,15.23
2023-05-06T23:43:17.624Z,15.08
2023-05-06T23:46:02.574Z,15.09
2023-05-06T23:48:47.622Z,15.08
2023-05-06T23:51:32.479Z,15.01
2023-05-06T23:54:17.577Z,15.02
2023-05-06T23:57:02.574Z,14.99
2023-05-06T23:59:47.672Z,14.98
